createdAt,value
2022-07-30T00:00:28.991Z,99009.27
2022-07-30T00:03:04.938Z,99006.10
2022-07-30T00:05:33.462Z,99012.21
2022-07-30T00:08:01.735Z,99010.52
2022-07-30T00:10:30.021Z,99008.16
2022-07-30T00:12:58.417Z,99009.85
2022-07-30T00:15:26.750Z,99005.23
2022-07-30T00:17:55.070Z,99001.02
2022-07-30T00:20:23.551Z,98993.64
2022-07-30T00:22:57.053Z,98989.08
2022-07-30T00:25:25.459Z,98982.08
2022-07-30T00:27:53.687Z,98978.44
2022-07-30T00:30:22.682Z,98972.55
2022-07-30T00:32:51.273Z,98972.02
2022-07-30T00:35:19.674Z,98972.95
2022-07-30T00:37:47.959Z,98968.52
2022-07-30T00:40:16.437Z,98950.99
2022-07-30T00:42:46.955Z,98940.44
2022-07-30T00:45:17.099Z,98937.38
2022-07-30T00:47:45.582Z,98933.38
2022-07-30T00:50:15.110Z,98928.66
2022-07-30T00:52:44.200Z,98926.50
2022-07-30T00:55:15.477Z,98928.31
2022-07-30T00:57:44.820Z,98925.91
2022-07-30T01:00:16.150Z,98920.73
2022-07-30T01:02:45.106Z,98913.56
2022-07-30T01:05:14.275Z,98905.91
2022-07-30T01:07:43.519Z,98902.10
2022-07-30T01:10:15.291Z,98903.45
2022-07-30T01:12:44.508Z,98899.00
2022-07-30T01:15:12.944Z,98895.06
2022-07-30T01:17:41.455Z,98887.89
2022-07-30T01:20:17.967Z,98882.13
2022-07-30T01:22:55.290Z,98872.55
2022-07-30T01:25:31.251Z,98870.70
2022-07-30T01:28:14.155Z,98868.52
2022-07-30T01:30:50.145Z,98864.40
2022-07-30T01:33:21.939Z,98860.95
2022-07-30T01:35:52.201Z,98859.48
2022-07-30T01:38:23.231Z,98865.39
2022-07-30T01:40:54.141Z,98863.73
2022-07-30T01:43:24.930Z,98863.63
2022-07-30T01:45:54.240Z,98861.52
2022-07-30T01:48:25.571Z,98853.32
2022-07-30T01:50:58.466Z,98849.30
2022-07-30T01:53:30.562Z,98850.45
2022-07-30T01:56:00.770Z,98861.23
2022-07-30T01:58:35.677Z,98872.05
2022-07-30T02:01:20.304Z,98875.11
2022-07-30T02:03:48.836Z,98875.67
2022-07-30T02:06:23.506Z,98872.73
2022-07-30T02:08:54.750Z,98869.33
2022-07-30T02:11:43.536Z,98872.06
2022-07-30T02:14:24.017Z,98880.72
2022-07-30T02:16:59.433Z,98885.25
2022-07-30T02:19:38.064Z,98881.80
2022-07-30T02:22:15.276Z,98883.17
2022-07-30T02:24:44.641Z,98885.77
2022-07-30T02:27:41.110Z,98880.10
2022-07-30T02:30:10.883Z,98877.21
2022-07-30T02:32:42.682Z,98875.42
2022-07-30T02:35:18.997Z,98866.84
2022-07-30T02:37:53.495Z,98868.09
2022-07-30T02:40:23.194Z,98868.50
2022-07-30T02:42:53.627Z,98861.92
2022-07-30T02:45:25.939Z,98856.98
2022-07-30T02:48:09.283Z,98850.01
2022-07-30T02:50:39.703Z,98845.02
2022-07-30T02:53:12.347Z,98847.42
2022-07-30T02:55:43.751Z,98843.23
2022-07-30T02:58:17.508Z,98843.37
2022-07-30T03:00:46.605Z,98833.63
2022-07-30T03:03:16.792Z,98834.65
2022-07-30T03:05:45.769Z,98829.21
2022-07-30T03:08:19.285Z,98825.95
2022-07-30T03:10:50.328Z,98829.55
2022-07-30T03:13:21.182Z,98835.48
2022-07-30T03:15:51.917Z,98830.14
2022-07-30T03:18:23.949Z,98826.88
2022-07-30T03:20:56.623Z,98824.84
2022-07-30T03:23:26.146Z,98826.88
2022-07-30T03:26:01.962Z,98823.91
2022-07-30T03:28:37.805Z,98822.42
2022-07-30T03:31:07.799Z,98820.88
2022-07-30T03:33:38.136Z,98821.86
2022-07-30T03:36:10.044Z,98828.43
2022-07-30T03:38:41.173Z,98829.62
2022-07-30T03:41:11.407Z,98827.80
2022-07-30T03:43:41.122Z,98826.85
2022-07-30T03:46:10.959Z,98823.15
2022-07-30T03:48:42.838Z,98826.67
2022-07-30T03:51:11.913Z,98826.54
2022-07-30T03:53:42.337Z,98829.45
2022-07-30T03:56:29.491Z,98842.47
2022-07-30T03:59:09.005Z,98849.35
2022-07-30T04:01:39.895Z,98849.63
2022-07-30T04:04:13.367Z,98852.67
2022-07-30T04:06:43.145Z,98848.70
2022-07-30T04:09:13.103Z,98847.48
2022-07-30T04:11:42.055Z,98847.55
2022-07-30T04:14:17.931Z,98848.66
2022-07-30T04:16:54.466Z,98849.04
2022-07-30T04:19:57.915Z,98853.20
2022-07-30T04:22:36.281Z,98847.39
2022-07-30T04:25:07.058Z,98844.72
2022-07-30T04:27:36.849Z,98847.17
2022-07-30T04:30:06.414Z,98848.36
2022-07-30T04:32:35.680Z,98855.73
2022-07-30T04:35:49.688Z,98861.66
2022-07-30T04:38:27.082Z,98872.27
2022-07-30T04:40:56.730Z,98872.64
2022-07-30T04:43:25.162Z,98872.09
2022-07-30T04:45:53.530Z,98869.73
2022-07-30T04:48:22.310Z,98865.52
2022-07-30T04:51:12.208Z,98863.00
2022-07-30T04:53:42.865Z,98864.11
2022-07-30T04:56:14.533Z,98868.62
2022-07-30T04:58:44.939Z,98869.72
2022-07-30T05:01:18.930Z,98865.39
2022-07-30T05:03:48.291Z,98861.95
2022-07-30T05:06:17.726Z,98859.77
2022-07-30T05:08:46.265Z,98862.95
2022-07-30T05:11:15.033Z,98868.17
2022-07-30T05:13:46.293Z,98872.72
2022-07-30T05:16:16.162Z,98874.14
2022-07-30T05:18:45.833Z,98870.27
2022-07-30T05:21:14.596Z,98865.40
2022-07-30T05:23:50.560Z,98863.55
2022-07-30T05:26:38.320Z,98862.86
2022-07-30T05:29:08.248Z,98867.75
2022-07-30T05:31:53.353Z,98871.20
2022-07-30T05:34:22.529Z,98872.02
2022-07-30T05:36:51.260Z,98870.35
2022-07-30T05:39:19.830Z,98872.29
2022-07-30T05:41:55.273Z,98878.20
2022-07-30T05:44:43.749Z,98883.64
2022-07-30T05:47:12.663Z,98888.54
2022-07-30T05:49:41.190Z,98894.68
2022-07-30T05:52:13.805Z,98894.86
2022-07-30T05:54:42.701Z,98895.00
2022-07-30T05:57:26.206Z,98890.92
2022-07-30T05:59:54.556Z,98890.63
2022-07-30T06:02:32.654Z,98892.08
2022-07-30T06:05:23.954Z,98891.12
2022-07-30T06:07:52.471Z,98882.63
2022-07-30T06:10:22.799Z,98882.33
2022-07-30T06:12:51.111Z,98879.44
2022-07-30T06:15:23.257Z,98875.13
2022-07-30T06:17:58.315Z,98871.38
2022-07-30T06:21:03.242Z,98870.11
2022-07-30T06:23:57.741Z,98868.56
2022-07-30T06:26:37.817Z,98868.05
2022-07-30T06:29:06.479Z,98864.91
2022-07-30T06:31:34.842Z,98866.55
2022-07-30T06:34:03.279Z,98868.35
2022-07-30T06:36:36.443Z,98868.17
2022-07-30T06:39:08.922Z,98867.25
2022-07-30T06:41:55.928Z,98865.58
2022-07-30T06:44:27.948Z,98865.29
2022-07-30T06:47:21.778Z,98862.44
2022-07-30T06:49:50.093Z,98854.86
2022-07-30T06:52:18.921Z,98852.11
2022-07-30T06:54:51.774Z,98842.73
2022-07-30T06:57:40.532Z,98841.69
2022-07-30T07:00:21.132Z,98836.77
2022-07-30T07:02:49.466Z,98835.68
2022-07-30T07:05:29.100Z,98834.48
2022-07-30T07:07:59.665Z,98830.74
2022-07-30T07:10:32.561Z,98823.83
2022-07-30T07:13:23.882Z,98825.53
2022-07-30T07:15:52.331Z,98822.02
2022-07-30T07:18:48.470Z,98823.34
2022-07-30T07:21:17.225Z,98824.77
2022-07-30T07:23:46.021Z,98816.77
2022-07-30T07:26:34.599Z,98813.86
2022-07-30T07:29:05.331Z,98816.57
2022-07-30T07:32:04.568Z,98812.23
2022-07-30T07:34:23.339Z,98810.40
2022-07-30T07:36:51.647Z,98815.08
2022-07-30T07:39:20.029Z,98814.21
2022-07-30T07:41:49.536Z,98813.20
2022-07-30T07:44:22.266Z,98806.78
2022-07-30T07:46:50.578Z,98800.23
2022-07-30T07:49:18.897Z,98801.83
2022-07-30T07:51:54.030Z,98801.23
2022-07-30T07:54:23.304Z,98803.60
2022-07-30T07:56:56.599Z,98805.59
2022-07-30T07:59:39.756Z,98807.34
2022-07-30T08:02:14.644Z,98806.85
2022-07-30T08:04:48.686Z,98807.30
2022-07-30T08:07:52.303Z,98802.62
2022-07-30T08:10:23.528Z,98803.95
2022-07-30T08:13:48.747Z,98799.63
2022-07-30T08:16:18.445Z,98799.59
2022-07-30T08:19:10.102Z,98793.10
2022-07-30T08:21:41.049Z,98786.66
2022-07-30T08:24:09.564Z,98785.39
2022-07-30T08:26:38.086Z,98785.63
2022-07-30T08:29:06.710Z,98786.92
2022-07-30T08:31:35.173Z,98783.13
2022-07-30T08:34:03.527Z,98784.41
2022-07-30T08:36:31.983Z,98781.75
2022-07-30T08:39:00.490Z,98784.09
2022-07-30T08:41:29.342Z,98781.60
2022-07-30T08:44:00.822Z,98775.72
2022-07-30T08:46:32.303Z,98769.63
2022-07-30T08:49:11.152Z,98763.95
2022-07-30T08:51:40.466Z,98764.80
2022-07-30T08:54:27.636Z,98761.27
2022-07-30T08:56:56.062Z,98755.69
2022-07-30T08:59:24.843Z,98751.10
2022-07-30T09:02:13.542Z,98746.66
2022-07-30T09:04:55.061Z,98746.39
2022-07-30T09:07:23.589Z,98745.31
2022-07-30T09:09:52.075Z,98745.77
2022-07-30T09:12:37.453Z,98741.73
2022-07-30T09:15:11.431Z,98737.66
2022-07-30T09:17:58.607Z,98735.30
2022-07-30T09:20:30.976Z,98734.66
2022-07-30T09:23:05.267Z,98738.38
2022-07-30T09:25:52.549Z,98746.17
2022-07-30T09:28:38.742Z,98745.84
2022-07-30T09:31:53.450Z,98749.02
2022-07-30T09:34:47.854Z,98756.40
2022-07-30T09:37:39.889Z,98762.83
2022-07-30T09:40:42.955Z,98755.73
2022-07-30T09:43:30.363Z,98755.88
2022-07-30T09:46:10.262Z,98758.98
2022-07-30T09:48:39.462Z,98764.59
2022-07-30T09:51:15.601Z,98761.11
2022-07-30T09:53:56.120Z,98760.43
2022-07-30T09:56:30.037Z,98759.73
2022-07-30T09:59:00.516Z,98761.61
2022-07-30T10:01:53.859Z,98757.09
2022-07-30T10:04:45.085Z,98756.19
2022-07-30T10:07:25.445Z,98753.91
2022-07-30T10:10:00.570Z,98749.78
2022-07-30T10:12:30.045Z,98752.23
2022-07-30T10:15:02.115Z,98747.09
2022-07-30T10:17:36.948Z,98745.16
2022-07-30T10:20:28.860Z,98744.95
2022-07-30T10:23:30.071Z,98751.11
2022-07-30T10:26:40.327Z,98750.55
2022-07-30T10:29:33.772Z,98748.56
2022-07-30T10:32:03.177Z,98741.23
2022-07-30T10:34:34.534Z,98740.20
2022-07-30T10:37:07.480Z,98739.20
2022-07-30T10:39:42.000Z,98736.05
2022-07-30T10:43:01.114Z,98734.80
2022-07-30T10:45:49.819Z,98730.16
2022-07-30T10:48:20.292Z,98725.73
2022-07-30T10:50:57.117Z,98719.66
2022-07-30T10:53:46.907Z,98718.89
2022-07-30T10:56:25.398Z,98717.54
2022-07-30T10:59:14.932Z,98716.30
2022-07-30T11:01:53.552Z,98713.88
2022-07-30T11:04:29.753Z,98712.14
2022-07-30T11:07:23.633Z,98711.27
2022-07-30T11:10:08.909Z,98712.82
2022-07-30T11:12:45.486Z,98705.19
2022-07-30T11:15:18.740Z,98700.39
2022-07-30T11:18:12.524Z,98694.63
2022-07-30T11:20:48.306Z,98689.85
2022-07-30T11:23:20.391Z,98680.75
2022-07-30T11:25:51.102Z,98677.51
2022-07-30T11:28:40.580Z,98681.10
2022-07-30T11:31:36.875Z,98678.02
2022-07-30T11:34:24.205Z,98674.95
2022-07-30T11:37:18.132Z,98676.95
2022-07-30T11:39:56.099Z,98678.52
2022-07-30T11:42:31.583Z,98679.19
2022-07-30T11:45:18.701Z,98682.77
2022-07-30T11:47:51.795Z,98681.95
2022-07-30T11:50:24.349Z,98685.11
2022-07-30T11:52:54.929Z,98687.16
2022-07-30T11:55:24.687Z,98690.70
2022-07-30T11:57:55.373Z,98689.32
2022-07-30T12:01:15.037Z,98688.23
2022-07-30T12:03:44.847Z,98686.54
2022-07-30T12:06:21.945Z,98682.33
2022-07-30T12:08:58.299Z,98680.09
2022-07-30T12:11:35.335Z,98672.32
2022-07-30T12:14:04.847Z,98667.83
2022-07-30T12:16:34.756Z,98662.81
2022-07-30T12:19:06.672Z,98660.70
2022-07-30T12:21:38.096Z,98655.30
2022-07-30T12:24:07.698Z,98651.98
2022-07-30T12:26:36.543Z,98647.26
2022-07-30T12:29:13.252Z,98643.98
2022-07-30T12:31:42.318Z,98641.48
2022-07-30T12:34:23.953Z,98630.73
2022-07-30T12:36:53.150Z,98630.81
2022-07-30T12:39:27.461Z,98624.27
2022-07-30T12:41:58.602Z,98623.86
2022-07-30T12:44:41.824Z,98622.55
2022-07-30T12:47:30.256Z,98620.89
2022-07-30T12:50:01.562Z,98620.31
2022-07-30T12:52:32.707Z,98619.09
2022-07-30T12:55:07.215Z,98622.08
2022-07-30T12:57:57.406Z,98622.31
2022-07-30T13:00:44.286Z,98627.50
2022-07-30T13:03:22.577Z,98626.10
2022-07-30T13:05:55.238Z,98623.45
2022-07-30T13:08:46.044Z,98622.79
2022-07-30T13:11:15.322Z,98613.64
2022-07-30T13:13:43.789Z,98612.61
2022-07-30T13:16:12.438Z,98601.63
2022-07-30T13:18:41.344Z,98594.54
2022-07-30T13:21:10.154Z,98588.38
2022-07-30T13:23:40.448Z,98584.15
2022-07-30T13:26:10.061Z,98572.75
2022-07-30T13:28:38.935Z,98568.33
2022-07-30T13:31:09.186Z,98560.05
2022-07-30T13:33:38.749Z,98560.25
2022-07-30T13:36:07.926Z,98555.21
2022-07-30T13:38:36.470Z,98549.02
2022-07-30T13:41:05.365Z,98552.45
2022-07-30T13:43:34.207Z,98557.01
2022-07-30T13:46:04.041Z,98561.17
2022-07-30T13:48:33.801Z,98559.08
2022-07-30T13:51:03.271Z,98556.48
2022-07-30T13:53:32.089Z,98554.31
2022-07-30T13:56:00.505Z,98549.07
2022-07-30T13:58:31.816Z,98546.30
2022-07-30T14:01:07.390Z,98544.23
2022-07-30T14:03:36.034Z,98543.29
2022-07-30T14:06:10.039Z,98539.79
2022-07-30T14:08:39.897Z,98539.88
2022-07-30T14:11:08.616Z,98538.59
2022-07-30T14:13:36.914Z,98539.45
2022-07-30T14:16:22.640Z,98539.91
2022-07-30T14:18:55.700Z,98534.13
2022-07-30T14:21:24.034Z,98528.48
2022-07-30T14:23:52.350Z,98521.58
2022-07-30T14:26:20.692Z,98513.08
2022-07-30T14:28:49.525Z,98514.11
2022-07-30T14:31:17.751Z,98516.52
2022-07-30T14:33:46.215Z,98514.95
2022-07-30T14:36:14.521Z,98516.34
2022-07-30T14:38:42.873Z,98519.20
2022-07-30T14:41:11.357Z,98519.13
2022-07-30T14:43:39.599Z,98518.14
2022-07-30T14:46:07.942Z,98514.98
2022-07-30T14:48:36.242Z,98508.63
2022-07-30T14:51:19.441Z,98507.98
2022-07-30T14:53:52.825Z,98503.81
2022-07-30T14:56:22.318Z,98507.39
2022-07-30T14:58:51.043Z,98514.92
2022-07-30T15:01:19.381Z,98517.58
2022-07-30T15:03:47.998Z,98518.44
2022-07-30T15:06:17.490Z,98517.98
2022-07-30T15:08:46.641Z,98525.78
2022-07-30T15:11:14.939Z,98535.60
2022-07-30T15:13:50.307Z,98538.29
2022-07-30T15:16:20.311Z,98541.01
2022-07-30T15:18:48.619Z,98540.59
2022-07-30T15:21:17.617Z,98540.65
2022-07-30T15:23:45.877Z,98540.08
2022-07-30T15:26:14.341Z,98546.77
2022-07-30T15:28:42.583Z,98548.86
2022-07-30T15:31:10.937Z,98547.58
2022-07-30T15:33:43.239Z,98556.45
2022-07-30T15:36:12.114Z,98565.87
2022-07-30T15:38:40.529Z,98571.52
2022-07-30T15:41:13.310Z,98569.35
2022-07-30T15:43:42.270Z,98563.08
2022-07-30T15:46:10.730Z,98567.88
2022-07-30T15:48:39.035Z,98567.84
2022-07-30T15:51:08.034Z,98556.56
2022-07-30T15:53:36.517Z,98546.43
2022-07-30T15:56:05.098Z,98551.41
2022-07-30T15:58:33.768Z,98556.59
2022-07-30T16:01:02.933Z,98554.14
2022-07-30T16:03:31.370Z,98554.54
2022-07-30T16:05:59.775Z,98551.90
2022-07-30T16:08:28.054Z,98552.39
2022-07-30T16:10:56.366Z,98549.50
2022-07-30T16:13:24.671Z,98543.64
2022-07-30T16:15:53.017Z,98540.33
2022-07-30T16:18:21.281Z,98533.91
2022-07-30T16:20:49.723Z,98530.58
2022-07-30T16:23:21.300Z,98518.61
2022-07-30T16:25:50.342Z,98512.40
2022-07-30T16:28:18.842Z,98519.30
2022-07-30T16:30:50.915Z,98531.00
2022-07-30T16:33:20.714Z,98543.92
2022-07-30T16:35:51.169Z,98546.20
2022-07-30T16:38:21.160Z,98545.48
2022-07-30T16:40:49.990Z,98544.76
2022-07-30T16:43:19.703Z,98540.75
2022-07-30T16:45:49.164Z,98538.71
2022-07-30T16:48:17.546Z,98536.48
2022-07-30T16:50:46.206Z,98539.70
2022-07-30T16:53:14.912Z,98547.20
2022-07-30T16:55:44.524Z,98548.57
2022-07-30T16:58:12.810Z,98551.36
2022-07-30T17:00:41.807Z,98558.08
2022-07-30T17:03:10.156Z,98559.05
2022-07-30T17:05:45.202Z,98553.80
2022-07-30T17:08:14.498Z,98551.59
2022-07-30T17:10:46.618Z,98550.31
2022-07-30T17:13:16.776Z,98547.94
2022-07-30T17:15:46.916Z,98547.50
2022-07-30T17:18:16.600Z,98541.24
2022-07-30T17:20:45.822Z,98528.77
2022-07-30T17:23:14.116Z,98520.89
2022-07-30T17:25:42.460Z,98519.36
2022-07-30T17:28:11.154Z,98519.55
2022-07-30T17:30:39.525Z,98525.73
2022-07-30T17:33:07.906Z,98519.16
2022-07-30T17:35:36.684Z,98522.73
2022-07-30T17:38:04.942Z,98525.39
2022-07-30T17:40:33.442Z,98523.40
2022-07-30T17:43:05.701Z,98528.83
2022-07-30T17:45:35.642Z,98529.83
2022-07-30T17:48:05.384Z,98529.23
2022-07-30T17:50:34.660Z,98532.07
2022-07-30T17:53:05.347Z,98537.52
2022-07-30T17:55:36.593Z,98535.56
2022-07-30T17:58:05.390Z,98538.30
2022-07-30T18:00:35.484Z,98539.09
2022-07-30T18:03:04.716Z,98535.36
2022-07-30T18:05:33.108Z,98529.91
2022-07-30T18:08:01.350Z,98525.83
2022-07-30T18:10:29.744Z,98520.73
2022-07-30T18:12:58.085Z,98522.54
2022-07-30T18:15:26.545Z,98518.61
2022-07-30T18:17:54.854Z,98515.17
2022-07-30T18:20:23.203Z,98511.95
2022-07-30T18:22:51.721Z,98507.55
2022-07-30T18:25:20.308Z,98509.83
2022-07-30T18:27:52.602Z,98508.32
2022-07-30T18:30:20.970Z,98508.36
2022-07-30T18:32:49.766Z,98510.77
2022-07-30T18:35:18.227Z,98510.78
2022-07-30T18:37:46.728Z,98509.48
2022-07-30T18:40:23.494Z,98512.50
2022-07-30T18:42:52.782Z,98516.13
2022-07-30T18:45:21.392Z,98514.41
2022-07-30T18:47:49.651Z,98513.30
2022-07-30T18:50:18.691Z,98511.04
2022-07-30T18:52:47.765Z,98508.48
2022-07-30T18:55:17.443Z,98512.85
2022-07-30T18:57:45.830Z,98505.92
2022-07-30T19:00:34.595Z,98508.84
2022-07-30T19:03:04.237Z,98512.80
2022-07-30T19:05:32.495Z,98510.12
2022-07-30T19:08:03.942Z,98513.59
2022-07-30T19:10:32.800Z,98519.95
2022-07-30T19:13:02.073Z,98517.98
2022-07-30T19:15:30.390Z,98521.81
2022-07-30T19:17:59.393Z,98526.11
2022-07-30T19:20:28.067Z,98525.56
2022-07-30T19:23:07.762Z,98525.34
2022-07-30T19:25:37.178Z,98528.77
2022-07-30T19:28:05.763Z,98529.18
2022-07-30T19:30:34.710Z,98532.67
2022-07-30T19:33:12.644Z,98527.19
2022-07-30T19:35:43.850Z,98523.07
2022-07-30T19:38:21.412Z,98521.20
2022-07-30T19:40:50.609Z,98517.20
2022-07-30T19:46:07.719Z,98511.25
2022-07-30T19:48:37.504Z,98506.73
2022-07-30T19:51:07.032Z,98502.20
2022-07-30T19:53:49.228Z,98500.08
2022-07-30T19:56:17.598Z,98501.73
2022-07-30T19:58:49.408Z,98501.59
2022-07-30T20:01:19.279Z,98504.90
2022-07-30T20:03:51.390Z,98502.65
2022-07-30T20:06:19.822Z,98501.84
2022-07-30T20:08:49.794Z,98502.80
2022-07-30T20:11:35.037Z,98505.66
2022-07-30T20:14:05.105Z,98505.86
2022-07-30T20:16:36.322Z,98507.20
2022-07-30T20:19:05.139Z,98508.77
2022-07-30T20:21:56.643Z,98504.41
2022-07-30T20:24:22.156Z,98502.53
2022-07-30T20:26:50.665Z,98507.98
2022-07-30T20:29:20.590Z,98505.77
2022-07-30T20:31:49.928Z,98508.92
2022-07-30T20:34:23.380Z,98508.25
2022-07-30T20:36:52.055Z,98510.20
2022-07-30T20:39:23.774Z,98509.21
2022-07-30T20:42:08.095Z,98505.82
2022-07-30T20:44:38.809Z,98507.64
2022-07-30T20:49:56.526Z,98505.40
2022-07-30T20:52:24.895Z,98500.64
2022-07-30T20:54:53.174Z,98497.02
2022-07-30T20:57:44.385Z,98495.39
2022-07-30T21:00:10.730Z,98496.02
2022-07-30T21:02:40.860Z,98495.26
2022-07-30T21:05:09.713Z,98493.66
2022-07-30T21:07:42.290Z,98492.29
2022-07-30T21:10:13.057Z,98494.33
2022-07-30T21:12:44.625Z,98492.61
2022-07-30T21:15:23.781Z,98494.52
2022-07-30T21:17:52.747Z,98496.83
2022-07-30T21:20:27.535Z,98493.86
2022-07-30T21:23:03.328Z,98492.66
2022-07-30T21:25:32.467Z,98499.13
2022-07-30T21:28:03.005Z,98497.56
2022-07-30T21:30:32.748Z,98500.17
2022-07-30T21:33:01.207Z,98501.03
2022-07-30T21:35:32.247Z,98500.38
2022-07-30T21:38:00.623Z,98495.40
2022-07-30T21:40:29.619Z,98495.50
2022-07-30T21:42:57.930Z,98490.43
2022-07-30T21:45:26.993Z,98491.11
2022-07-30T21:48:07.522Z,98492.30
2022-07-30T21:50:38.197Z,98492.09
2022-07-30T21:53:06.373Z,98493.17
2022-07-30T21:55:52.445Z,98487.89
2022-07-30T21:58:25.782Z,98487.25
2022-07-30T22:00:55.695Z,98485.14
2022-07-30T22:06:12.893Z,98487.31
2022-07-30T22:08:41.390Z,98486.52
2022-07-30T22:11:18.966Z,98487.09
2022-07-30T22:13:51.412Z,98491.27
2022-07-30T22:16:22.413Z,98492.31
2022-07-30T22:18:51.563Z,98485.36
2022-07-30T22:21:20.574Z,98485.71
2022-07-30T22:23:54.413Z,98479.73
2022-07-30T22:26:28.234Z,98472.96
2022-07-30T22:28:56.955Z,98474.54
2022-07-30T22:31:26.789Z,98476.23
2022-07-30T22:34:11.491Z,98480.43
2022-07-30T22:36:39.989Z,98477.02
2022-07-30T22:39:08.974Z,98470.54
2022-07-30T22:41:56.581Z,98462.02
2022-07-30T22:44:25.523Z,98457.77
2022-07-30T22:46:56.115Z,98445.87
2022-07-30T22:49:50.310Z,98444.20
2022-07-30T22:52:24.511Z,98448.52
2022-07-30T22:54:54.928Z,98445.58
2022-07-30T22:57:23.493Z,98441.25
2022-07-30T23:00:00.013Z,98437.53
2022-07-30T23:02:29.061Z,98432.60
2022-07-30T23:04:57.369Z,98429.54
2022-07-30T23:07:34.115Z,98426.88
2022-07-30T23:10:17.237Z,98426.59
2022-07-30T23:12:17.566Z,98513.00
2022-07-30T23:12:18.909Z,98507.55
2022-07-30T23:12:28.191Z,98485.65
2022-07-30T23:12:51.887Z,98427.65
2022-07-30T23:15:20.531Z,98428.11
2022-07-30T23:17:48.886Z,98425.33
2022-07-30T23:20:20.657Z,98424.44
2022-07-30T23:22:49.774Z,98423.54
2022-07-30T23:25:18.564Z,98422.44
2022-07-30T23:27:46.941Z,98416.52
2022-07-30T23:30:15.521Z,98414.64
2022-07-30T23:32:43.879Z,98410.45
2022-07-30T23:35:12.658Z,98406.04
2022-07-30T23:37:48.320Z,98406.17
2022-07-30T23:40:18.823Z,98405.01
2022-07-30T23:42:50.247Z,98408.06
2022-07-30T23:45:18.885Z,98410.73
2022-07-30T23:47:51.168Z,98412.66
2022-07-30T23:50:32.477Z,98411.54
2022-07-30T23:53:02.398Z,98407.69
2022-07-30T23:55:32.062Z,98409.36
2022-07-30T23:58:00.520Z,98416.53
